sensor_id;sensor_type;location;lat;lon;timestamp;temperature;humidity
69382;DHT22;56560;50.692;12.844;2022-09-21T00:01:24;7.70;86.70
69382;DHT22;56560;50.692;12.844;2022-09-21T00:03:54;7.60;87.60
69382;DHT22;56560;50.692;12.844;2022-09-21T00:06:21;7.60;88.10
69382;DHT22;56560;50.692;12.844;2022-09-21T00:08:48;7.60;88.20
69382;DHT22;56560;50.692;12.844;2022-09-21T00:11:20;7.60;88.30
69382;DHT22;56560;50.692;12.844;2022-09-21T00:13:46;7.60;88.20
69382;DHT22;56560;50.692;12.844;2022-09-21T00:16:13;7.60;88.00
69382;DHT22;56560;50.692;12.844;2022-09-21T00:18:38;7.50;87.80
69382;DHT22;56560;50.692;12.844;2022-09-21T00:21:09;7.50;88.00
69382;DHT22;56560;50.692;12.844;2022-09-21T00:23:35;7.50;88.10
69382;DHT22;56560;50.692;12.844;2022-09-21T00:26:16;7.60;87.90
69382;DHT22;56560;50.692;12.844;2022-09-21T00:28:42;7.60;88.10
69382;DHT22;56560;50.692;12.844;2022-09-21T00:31:11;7.50;88.40
69382;DHT22;56560;50.692;12.844;2022-09-21T00:33:40;7.60;89.10
69382;DHT22;56560;50.692;12.844;2022-09-21T00:36:08;7.60;88.70
69382;DHT22;56560;50.692;12.844;2022-09-21T00:38:34;7.70;89.00
69382;DHT22;56560;50.692;12.844;2022-09-21T00:41:01;7.70;88.70
69382;DHT22;56560;50.692;12.844;2022-09-21T00:43:27;7.80;88.40
69382;DHT22;56560;50.692;12.844;2022-09-21T00:46:04;7.90;87.80
69382;DHT22;56560;50.692;12.844;2022-09-21T00:48:31;7.90;87.50
69382;DHT22;56560;50.692;12.844;2022-09-21T00:51:01;8.00;87.40
69382;DHT22;56560;50.692;12.844;2022-09-21T00:53:28;8.00;87.00
69382;DHT22;56560;50.692;12.844;2022-09-21T00:55:56;8.00;87.40
69382;DHT22;56560;50.692;12.844;2022-09-21T00:58:26;8.00;87.10
69382;DHT22;56560;50.692;12.844;2022-09-21T01:27:18;7.80;88.00
69382;DHT22;56560;50.692;12.844;2022-09-21T01:29:48;7.90;87.90
69382;DHT22;56560;50.692;12.844;2022-09-21T01:32:24;8.00;87.80
69382;DHT22;56560;50.692;12.844;2022-09-21T01:40:01;8.00;87.60
69382;DHT22;56560;50.692;12.844;2022-09-21T01:42:28;8.10;87.50
69382;DHT22;56560;50.692;12.844;2022-09-21T01:44:58;8.00;87.70
69382;DHT22;56560;50.692;12.844;2022-09-21T01:47:27;8.00;87.50
69382;DHT22;56560;50.692;12.844;2022-09-21T01:49:58;7.90;87.50
69382;DHT22;56560;50.692;12.844;2022-09-21T01:52:39;7.90;87.30
69382;DHT22;56560;50.692;12.844;2022-09-21T01:55:21;7.80;87.50
69382;DHT22;56560;50.692;12.844;2022-09-21T01:57:59;7.70;88.00
69382;DHT22;56560;50.692;12.844;2022-09-21T02:00:28;7.50;88.20
69382;DHT22;56560;50.692;12.844;2022-09-21T02:03:03;7.40;88.50
69382;DHT22;56560;50.692;12.844;2022-09-21T02:05:29;7.30;88.80
69382;DHT22;56560;50.692;12.844;2022-09-21T02:07:56;7.20;89.40
69382;DHT22;56560;50.692;12.844;2022-09-21T02:10:27;7.10;89.70
69382;DHT22;56560;50.692;12.844;2022-09-21T02:12:58;7.10;89.60
69382;DHT22;56560;50.692;12.844;2022-09-21T02:15:35;7.10;89.90
69382;DHT22;56560;50.692;12.844;2022-09-21T02:18:11;7.10;89.70
69382;DHT22;56560;50.692;12.844;2022-09-21T02:20:56;7.00;89.60
69382;DHT22;56560;50.692;12.844;2022-09-21T02:23:41;7.00;89.70
69382;DHT22;56560;50.692;12.844;2022-09-21T02:26:20;6.90;89.90
69382;DHT22;56560;50.692;12.844;2022-09-21T02:37:31;6.80;90.00
69382;DHT22;56560;50.692;12.844;2022-09-21T02:43:19;6.60;89.90
69382;DHT22;56560;50.692;12.844;2022-09-21T02:45:53;6.40;89.90
69382;DHT22;56560;50.692;12.844;2022-09-21T02:48:32;6.20;90.20
69382;DHT22;56560;50.692;12.844;2022-09-21T02:51:04;6.10;90.40
69382;DHT22;56560;50.692;12.844;2022-09-21T02:53:34;6.00;90.30
69382;DHT22;56560;50.692;12.844;2022-09-21T02:56:02;5.90;90.70
69382;DHT22;56560;50.692;12.844;2022-09-21T02:58:38;5.90;90.40
69382;DHT22;56560;50.692;12.844;2022-09-21T03:01:05;5.80;91.20
69382;DHT22;56560;50.692;12.844;2022-09-21T03:03:33;5.70;91.00
69382;DHT22;56560;50.692;12.844;2022-09-21T03:05:59;5.70;91.40
69382;DHT22;56560;50.692;12.844;2022-09-21T03:08:26;5.60;91.90
69382;DHT22;56560;50.692;12.844;2022-09-21T03:10:52;5.60;92.00
69382;DHT22;56560;50.692;12.844;2022-09-21T03:13:18;5.50;91.80
69382;DHT22;56560;50.692;12.844;2022-09-21T03:15:44;5.50;92.00
69382;DHT22;56560;50.692;12.844;2022-09-21T03:18:11;5.40;92.20
69382;DHT22;56560;50.692;12.844;2022-09-21T03:20:38;5.40;91.90
69382;DHT22;56560;50.692;12.844;2022-09-21T03:23:04;5.30;91.90
69382;DHT22;56560;50.692;12.844;2022-09-21T03:25:30;5.20;91.80
69382;DHT22;56560;50.692;12.844;2022-09-21T03:27:57;5.20;91.80
69382;DHT22;56560;50.692;12.844;2022-09-21T03:30:24;5.10;92.00
69382;DHT22;56560;50.692;12.844;2022-09-21T03:32:51;5.00;92.10
69382;DHT22;56560;50.692;12.844;2022-09-21T03:35:20;5.00;92.20
69382;DHT22;56560;50.692;12.844;2022-09-21T03:37:47;4.90;92.50
69382;DHT22;56560;50.692;12.844;2022-09-21T03:40:14;4.90;92.50
69382;DHT22;56560;50.692;12.844;2022-09-21T03:42:40;4.80;92.70
69382;DHT22;56560;50.692;12.844;2022-09-21T03:45:07;4.80;92.60
69382;DHT22;56560;50.692;12.844;2022-09-21T03:47:33;4.70;92.70
69382;DHT22;56560;50.692;12.844;2022-09-21T03:49:59;4.70;92.70
69382;DHT22;56560;50.692;12.844;2022-09-21T03:52:25;4.60;93.10
69382;DHT22;56560;50.692;12.844;2022-09-21T03:54:50;4.60;92.90
69382;DHT22;56560;50.692;12.844;2022-09-21T03:57:16;4.60;92.80
69382;DHT22;56560;50.692;12.844;2022-09-21T03:59:42;4.60;92.60
69382;DHT22;56560;50.692;12.844;2022-09-21T04:02:07;4.50;92.50
69382;DHT22;56560;50.692;12.844;2022-09-21T04:04:33;4.50;92.80
69382;DHT22;56560;50.692;12.844;2022-09-21T04:06:59;4.40;92.70
69382;DHT22;56560;50.692;12.844;2022-09-21T04:09:25;4.40;92.40
69382;DHT22;56560;50.692;12.844;2022-09-21T04:11:51;4.40;92.60
69382;DHT22;56560;50.692;12.844;2022-09-21T04:14:18;4.40;92.60
69382;DHT22;56560;50.692;12.844;2022-09-21T04:16:45;4.30;92.80
69382;DHT22;56560;50.692;12.844;2022-09-21T04:19:10;4.30;92.70
69382;DHT22;56560;50.692;12.844;2022-09-21T04:21:36;4.20;92.90
69382;DHT22;56560;50.692;12.844;2022-09-21T04:24:02;4.10;92.70
69382;DHT22;56560;50.692;12.844;2022-09-21T04:26:31;4.10;93.20
69382;DHT22;56560;50.692;12.844;2022-09-21T04:28:58;4.10;93.30
69382;DHT22;56560;50.692;12.844;2022-09-21T04:31:24;4.20;93.80
69382;DHT22;56560;50.692;12.844;2022-09-21T04:33:52;4.30;94.20
69382;DHT22;56560;50.692;12.844;2022-09-21T04:36:19;4.50;94.40
69382;DHT22;56560;50.692;12.844;2022-09-21T04:38:45;4.60;94.70
69382;DHT22;56560;50.692;12.844;2022-09-21T04:41:11;4.80;94.30
69382;DHT22;56560;50.692;12.844;2022-09-21T04:43:37;5.00;93.90
69382;DHT22;56560;50.692;12.844;2022-09-21T04:46:07;5.00;93.20
69382;DHT22;56560;50.692;12.844;2022-09-21T04:48:33;5.10;92.50
69382;DHT22;56560;50.692;12.844;2022-09-21T04:50:59;5.20;92.40
69382;DHT22;56560;50.692;12.844;2022-09-21T04:53:25;5.20;91.90
69382;DHT22;56560;50.692;12.844;2022-09-21T04:55:50;5.30;91.20
69382;DHT22;56560;50.692;12.844;2022-09-21T04:58:16;5.30;91.50
69382;DHT22;56560;50.692;12.844;2022-09-21T05:00:42;5.40;92.00
69382;DHT22;56560;50.692;12.844;2022-09-21T05:03:08;5.50;91.90
69382;DHT22;56560;50.692;12.844;2022-09-21T05:05:33;5.60;91.60
69382;DHT22;56560;50.692;12.844;2022-09-21T05:07:59;5.70;91.90
69382;DHT22;56560;50.692;12.844;2022-09-21T05:10:25;5.70;91.80
69382;DHT22;56560;50.692;12.844;2022-09-21T05:12:51;5.90;92.10
69382;DHT22;56560;50.692;12.844;2022-09-21T05:15:17;6.00;91.60
69382;DHT22;56560;50.692;12.844;2022-09-21T05:17:43;6.10;91.20
69382;DHT22;56560;50.692;12.844;2022-09-21T05:20:09;6.30;90.60
69382;DHT22;56560;50.692;12.844;2022-09-21T05:22:35;6.30;90.00
69382;DHT22;56560;50.692;12.844;2022-09-21T05:25:02;6.40;90.60
69382;DHT22;56560;50.692;12.844;2022-09-21T05:27:27;6.40;90.70
69382;DHT22;56560;50.692;12.844;2022-09-21T05:29:53;6.50;90.40
69382;DHT22;56560;50.692;12.844;2022-09-21T05:38:11;6.60;90.50
69382;DHT22;56560;50.692;12.844;2022-09-21T05:40:41;6.70;90.30
69382;DHT22;56560;50.692;12.844;2022-09-21T05:43:08;6.70;90.10
69382;DHT22;56560;50.692;12.844;2022-09-21T05:45:34;6.70;90.20
69382;DHT22;56560;50.692;12.844;2022-09-21T05:48:18;6.80;90.60
69382;DHT22;56560;50.692;12.844;2022-09-21T05:51:13;6.90;89.90
69382;DHT22;56560;50.692;12.844;2022-09-21T05:53:50;7.10;89.30
69382;DHT22;56560;50.692;12.844;2022-09-21T05:57:12;7.30;89.20
69382;DHT22;56560;50.692;12.844;2022-09-21T06:05:08;8.00;88.00
69382;DHT22;56560;50.692;12.844;2022-09-21T06:07:35;8.20;87.00
69382;DHT22;56560;50.692;12.844;2022-09-21T06:10:00;8.30;85.60
69382;DHT22;56560;50.692;12.844;2022-09-21T06:12:26;8.40;85.60
69382;DHT22;56560;50.692;12.844;2022-09-21T06:14:51;8.50;84.90
69382;DHT22;56560;50.692;12.844;2022-09-21T06:17:17;8.50;85.30
69382;DHT22;56560;50.692;12.844;2022-09-21T06:19:42;8.60;84.20
69382;DHT22;56560;50.692;12.844;2022-09-21T06:22:08;8.70;84.80
69382;DHT22;56560;50.692;12.844;2022-09-21T06:24:34;8.90;84.40
69382;DHT22;56560;50.692;12.844;2022-09-21T06:26:59;8.90;83.30
69382;DHT22;56560;50.692;12.844;2022-09-21T06:29:25;9.00;83.20
69382;DHT22;56560;50.692;12.844;2022-09-21T06:31:51;9.10;82.70
69382;DHT22;56560;50.692;12.844;2022-09-21T06:34:17;9.00;82.00
69382;DHT22;56560;50.692;12.844;2022-09-21T06:36:42;9.10;82.70
69382;DHT22;56560;50.692;12.844;2022-09-21T06:39:10;9.10;82.90
69382;DHT22;56560;50.692;12.844;2022-09-21T06:41:35;9.30;83.20
69382;DHT22;56560;50.692;12.844;2022-09-21T06:44:01;9.40;83.40
69382;DHT22;56560;50.692;12.844;2022-09-21T06:46:27;9.50;82.60
69382;DHT22;56560;50.692;12.844;2022-09-21T06:48:53;9.50;83.30
69382;DHT22;56560;50.692;12.844;2022-09-21T06:51:18;9.50;82.60
69382;DHT22;56560;50.692;12.844;2022-09-21T06:53:46;9.50;82.40
69382;DHT22;56560;50.692;12.844;2022-09-21T06:56:12;9.60;83.30
69382;DHT22;56560;50.692;12.844;2022-09-21T06:58:38;9.70;82.90
69382;DHT22;56560;50.692;12.844;2022-09-21T07:03:31;10.10;81.00
69382;DHT22;56560;50.692;12.844;2022-09-21T07:05:56;10.30;80.70
69382;DHT22;56560;50.692;12.844;2022-09-21T07:08:22;10.40;80.30
69382;DHT22;56560;50.692;12.844;2022-09-21T07:10:48;10.40;80.20
69382;DHT22;56560;50.692;12.844;2022-09-21T07:13:14;10.30;80.70
69382;DHT22;56560;50.692;12.844;2022-09-21T07:15:42;10.20;80.30
69382;DHT22;56560;50.692;12.844;2022-09-21T07:18:11;10.00;80.20
69382;DHT22;56560;50.692;12.844;2022-09-21T07:20:38;10.00;80.30
69382;DHT22;56560;50.692;12.844;2022-09-21T07:23:12;10.00;81.20
69382;DHT22;56560;50.692;12.844;2022-09-21T07:25:40;10.10;80.70
69382;DHT22;56560;50.692;12.844;2022-09-21T07:28:06;10.00;80.10
69382;DHT22;56560;50.692;12.844;2022-09-21T07:30:32;10.10;79.80
69382;DHT22;56560;50.692;12.844;2022-09-21T07:32:57;10.10;79.70
69382;DHT22;56560;50.692;12.844;2022-09-21T07:35:23;10.20;80.50
69382;DHT22;56560;50.692;12.844;2022-09-21T07:37:49;10.30;78.80
69382;DHT22;56560;50.692;12.844;2022-09-21T07:40:15;10.20;78.70
69382;DHT22;56560;50.692;12.844;2022-09-21T07:42:40;10.30;79.00
69382;DHT22;56560;50.692;12.844;2022-09-21T07:45:06;10.40;78.60
69382;DHT22;56560;50.692;12.844;2022-09-21T07:47:32;10.50;78.00
69382;DHT22;56560;50.692;12.844;2022-09-21T07:49:58;10.70;77.70
69382;DHT22;56560;50.692;12.844;2022-09-21T07:52:23;11.20;78.10
69382;DHT22;56560;50.692;12.844;2022-09-21T07:54:49;11.70;75.50
69382;DHT22;56560;50.692;12.844;2022-09-21T07:57:14;12.10;74.70
69382;DHT22;56560;50.692;12.844;2022-09-21T07:59:59;12.20;72.00
69382;DHT22;56560;50.692;12.844;2022-09-21T08:02:25;12.30;72.50
69382;DHT22;56560;50.692;12.844;2022-09-21T08:04:50;12.40;71.80
69382;DHT22;56560;50.692;12.844;2022-09-21T08:07:16;12.60;70.70
69382;DHT22;56560;50.692;12.844;2022-09-21T08:09:42;12.60;70.60
69382;DHT22;56560;50.692;12.844;2022-09-21T08:12:08;12.60;69.40
69382;DHT22;56560;50.692;12.844;2022-09-21T08:14:35;12.60;70.00
69382;DHT22;56560;50.692;12.844;2022-09-21T08:17:03;12.70;70.20
69382;DHT22;56560;50.692;12.844;2022-09-21T08:19:28;12.80;70.00
69382;DHT22;56560;50.692;12.844;2022-09-21T08:21:54;13.00;70.20
69382;DHT22;56560;50.692;12.844;2022-09-21T08:24:20;13.10;68.90
69382;DHT22;56560;50.692;12.844;2022-09-21T08:26:45;13.20;68.80
69382;DHT22;56560;50.692;12.844;2022-09-21T08:29:11;13.20;66.90
69382;DHT22;56560;50.692;12.844;2022-09-21T08:31:39;13.40;67.50
69382;DHT22;56560;50.692;12.844;2022-09-21T08:34:04;13.70;67.40
69382;DHT22;56560;50.692;12.844;2022-09-21T08:36:30;13.70;67.30
69382;DHT22;56560;50.692;12.844;2022-09-21T08:38:56;13.50;66.70
69382;DHT22;56560;50.692;12.844;2022-09-21T08:44:18;13.10;66.10
69382;DHT22;56560;50.692;12.844;2022-09-21T08:46:52;13.00;67.20
69382;DHT22;56560;50.692;12.844;2022-09-21T08:49:21;12.80;68.50
69382;DHT22;56560;50.692;12.844;2022-09-21T08:51:53;12.80;68.50
69382;DHT22;56560;50.692;12.844;2022-09-21T08:57:22;12.80;68.90
69382;DHT22;56560;50.692;12.844;2022-09-21T08:59:49;12.90;68.00
69382;DHT22;56560;50.692;12.844;2022-09-21T09:02:32;13.00;69.20
69382;DHT22;56560;50.692;12.844;2022-09-21T09:21:16;13.60;65.00
69382;DHT22;56560;50.692;12.844;2022-09-21T09:23:28;13.40;65.00
69382;DHT22;56560;50.692;12.844;2022-09-21T09:26:19;13.20;67.20
69382;DHT22;56560;50.692;12.844;2022-09-21T09:29:20;13.20;67.10
69382;DHT22;56560;50.692;12.844;2022-09-21T09:31:38;13.30;68.10
69382;DHT22;56560;50.692;12.844;2022-09-21T09:37:00;13.40;65.50
69382;DHT22;56560;50.692;12.844;2022-09-21T09:39:30;13.50;65.50
69382;DHT22;56560;50.692;12.844;2022-09-21T09:42:08;13.70;64.80
69382;DHT22;56560;50.692;12.844;2022-09-21T09:50:26;14.10;60.90
69382;DHT22;56560;50.692;12.844;2022-09-21T09:53:13;14.00;62.30
69382;DHT22;56560;50.692;12.844;2022-09-21T09:55:43;14.20;59.80
69382;DHT22;56560;50.692;12.844;2022-09-21T10:00:42;15.10;57.80
69382;DHT22;56560;50.692;12.844;2022-09-21T10:03:19;15.30;57.90
69382;DHT22;56560;50.692;12.844;2022-09-21T10:05:45;16.00;57.00
69382;DHT22;56560;50.692;12.844;2022-09-21T10:08:37;16.40;55.50
69382;DHT22;56560;50.692;12.844;2022-09-21T10:11:13;16.50;54.60
69382;DHT22;56560;50.692;12.844;2022-09-21T10:13:40;16.20;56.70
69382;DHT22;56560;50.692;12.844;2022-09-21T10:16:22;15.80;55.60
69382;DHT22;56560;50.692;12.844;2022-09-21T10:18:54;15.30;56.70
69382;DHT22;56560;50.692;12.844;2022-09-21T10:23:56;15.60;55.70
69382;DHT22;56560;50.692;12.844;2022-09-21T10:26:36;15.90;55.10
69382;DHT22;56560;50.692;12.844;2022-09-21T10:31:57;16.90;51.00
69382;DHT22;56560;50.692;12.844;2022-09-21T10:34:25;16.80;51.60
69382;DHT22;56560;50.692;12.844;2022-09-21T10:36:54;16.60;53.00
69382;DHT22;56560;50.692;12.844;2022-09-21T10:39:26;16.70;52.80
69382;DHT22;56560;50.692;12.844;2022-09-21T10:41:53;16.80;52.30
69382;DHT22;56560;50.692;12.844;2022-09-21T10:44:27;16.90;52.80
69382;DHT22;56560;50.692;12.844;2022-09-21T10:46:53;17.10;53.40
69382;DHT22;56560;50.692;12.844;2022-09-21T10:49:27;16.90;52.40
69382;DHT22;56560;50.692;12.844;2022-09-21T10:51:56;16.70;53.80
69382;DHT22;56560;50.692;12.844;2022-09-21T10:54:29;16.40;54.70
69382;DHT22;56560;50.692;12.844;2022-09-21T10:56:59;16.10;53.30
69382;DHT22;56560;50.692;12.844;2022-09-21T10:59:31;15.80;54.50
69382;DHT22;56560;50.692;12.844;2022-09-21T11:01:59;15.50;53.50
69382;DHT22;56560;50.692;12.844;2022-09-21T11:04:30;15.40;55.20
69382;DHT22;56560;50.692;12.844;2022-09-21T11:07:05;15.60;55.80
69382;DHT22;56560;50.692;12.844;2022-09-21T11:09:44;16.50;54.50
69382;DHT22;56560;50.692;12.844;2022-09-21T11:20:23;17.70;48.30
69382;DHT22;56560;50.692;12.844;2022-09-21T11:28:05;16.90;52.20
69382;DHT22;56560;50.692;12.844;2022-09-21T11:31:03;16.80;52.50
69382;DHT22;56560;50.692;12.844;2022-09-21T11:41:49;16.50;53.60
69382;DHT22;56560;50.692;12.844;2022-09-21T11:52:39;20.50;40.70
69382;DHT22;56560;50.692;12.844;2022-09-21T11:55:21;21.20;40.50
69382;DHT22;56560;50.692;12.844;2022-09-21T11:58:00;21.30;40.50
69382;DHT22;56560;50.692;12.844;2022-09-21T12:00:35;20.70;42.20
69382;DHT22;56560;50.692;12.844;2022-09-21T12:03:29;20.10;43.50
69382;DHT22;56560;50.692;12.844;2022-09-21T12:19:39;19.40;43.90
69382;DHT22;56560;50.692;12.844;2022-09-21T12:21:45;19.40;43.90
69382;DHT22;56560;50.692;12.844;2022-09-21T12:24:27;19.30;42.70
69382;DHT22;56560;50.692;12.844;2022-09-21T12:26:57;18.90;45.90
69382;DHT22;56560;50.692;12.844;2022-09-21T12:29:39;18.20;47.30
69382;DHT22;56560;50.692;12.844;2022-09-21T12:35:02;17.10;51.00
69382;DHT22;56560;50.692;12.844;2022-09-21T12:37:49;16.80;52.60
69382;DHT22;56560;50.692;12.844;2022-09-21T12:40:24;16.50;53.50
69382;DHT22;56560;50.692;12.844;2022-09-21T12:43:12;16.30;54.00
69382;DHT22;56560;50.692;12.844;2022-09-21T12:45:51;16.40;53.60
69382;DHT22;56560;50.692;12.844;2022-09-21T12:48:37;16.20;52.30
69382;DHT22;56560;50.692;12.844;2022-09-21T12:51:21;15.90;54.10
69382;DHT22;56560;50.692;12.844;2022-09-21T12:53:52;15.90;54.10
69382;DHT22;56560;50.692;12.844;2022-09-21T12:56:40;16.00;51.70
69382;DHT22;56560;50.692;12.844;2022-09-21T13:01:51;16.10;52.50
69382;DHT22;56560;50.692;12.844;2022-09-21T13:04:45;16.10;52.60
69382;DHT22;56560;50.692;12.844;2022-09-21T13:10:17;16.30;51.80
69382;DHT22;56560;50.692;12.844;2022-09-21T13:12:45;16.40;53.00
69382;DHT22;56560;50.692;12.844;2022-09-21T13:17:59;16.70;53.30
69382;DHT22;56560;50.692;12.844;2022-09-21T13:20:26;16.80;51.80
69382;DHT22;56560;50.692;12.844;2022-09-21T13:22:58;16.60;52.50
69382;DHT22;56560;50.692;12.844;2022-09-21T13:25:26;16.50;52.30
69382;DHT22;56560;50.692;12.844;2022-09-21T13:28:03;16.70;54.20
69382;DHT22;56560;50.692;12.844;2022-09-21T13:30:48;16.70;53.20
69382;DHT22;56560;50.692;12.844;2022-09-21T13:35:54;16.80;53.90
69382;DHT22;56560;50.692;12.844;2022-09-21T13:43:47;17.50;50.80
69382;DHT22;56560;50.692;12.844;2022-09-21T13:54:23;20.00;44.10
69382;DHT22;56560;50.692;12.844;2022-09-21T13:59:31;23.00;39.20
69382;DHT22;56560;50.692;12.844;2022-09-21T14:02:00;24.30;37.90
69382;DHT22;56560;50.692;12.844;2022-09-21T14:04:28;25.60;34.50
69382;DHT22;56560;50.692;12.844;2022-09-21T14:06:55;26.50;34.00
69382;DHT22;56560;50.692;12.844;2022-09-21T14:09:28;27.10;32.60
69382;DHT22;56560;50.692;12.844;2022-09-21T14:12:02;27.50;32.60
69382;DHT22;56560;50.692;12.844;2022-09-21T14:14:33;27.50;31.90
69382;DHT22;56560;50.692;12.844;2022-09-21T14:17:32;28.40;32.20
69382;DHT22;56560;50.692;12.844;2022-09-21T14:24:46;27.70;31.60
69382;DHT22;56560;50.692;12.844;2022-09-21T14:27:33;27.00;32.80
69382;DHT22;56560;50.692;12.844;2022-09-21T14:33:21;23.80;36.20
69382;DHT22;56560;50.692;12.844;2022-09-21T14:35:53;21.60;40.00
69382;DHT22;56560;50.692;12.844;2022-09-21T14:38:26;20.60;42.80
69382;DHT22;56560;50.692;12.844;2022-09-21T14:40:57;19.80;44.80
69382;DHT22;56560;50.692;12.844;2022-09-21T14:43:30;19.30;46.10
69382;DHT22;56560;50.692;12.844;2022-09-21T14:46:23;18.80;47.80
69382;DHT22;56560;50.692;12.844;2022-09-21T14:57:37;18.00;47.50
69382;DHT22;56560;50.692;12.844;2022-09-21T15:00:20;17.90;48.50
69382;DHT22;56560;50.692;12.844;2022-09-21T15:12:18;22.80;37.00
69382;DHT22;56560;50.692;12.844;2022-09-21T15:14:55;24.20;36.70
69382;DHT22;56560;50.692;12.844;2022-09-21T15:17:27;25.40;33.70
69382;DHT22;56560;50.692;12.844;2022-09-21T15:19:58;26.30;33.30
69382;DHT22;56560;50.692;12.844;2022-09-21T15:22:28;27.40;31.90
69382;DHT22;56560;50.692;12.844;2022-09-21T15:24:56;28.50;30.70
69382;DHT22;56560;50.692;12.844;2022-09-21T15:27:25;28.80;30.10
69382;DHT22;56560;50.692;12.844;2022-09-21T15:29:53;29.40;29.30
69382;DHT22;56560;50.692;12.844;2022-09-21T15:34:57;29.00;30.40
69382;DHT22;56560;50.692;12.844;2022-09-21T15:37:25;29.20;29.60
69382;DHT22;56560;50.692;12.844;2022-09-21T15:40:04;28.70;30.80
69382;DHT22;56560;50.692;12.844;2022-09-21T15:42:30;27.50;32.00
69382;DHT22;56560;50.692;12.844;2022-09-21T15:45:17;25.70;34.10
69382;DHT22;56560;50.692;12.844;2022-09-21T15:47:43;23.50;35.90
69382;DHT22;56560;50.692;12.844;2022-09-21T15:50:14;21.80;38.60
69382;DHT22;56560;50.692;12.844;2022-09-21T15:53:03;20.40;40.80
69382;DHT22;56560;50.692;12.844;2022-09-21T15:55:29;19.40;44.20
69382;DHT22;56560;50.692;12.844;2022-09-21T15:57:58;18.40;44.40
69382;DHT22;56560;50.692;12.844;2022-09-21T16:00:32;17.60;47.70
69382;DHT22;56560;50.692;12.844;2022-09-21T16:05:52;16.40;50.30
69382;DHT22;56560;50.692;12.844;2022-09-21T16:14:19;15.20;56.20
69382;DHT22;56560;50.692;12.844;2022-09-21T16:22:44;15.00;57.70
69382;DHT22;56560;50.692;12.844;2022-09-21T16:27:58;15.00;58.60
69382;DHT22;56560;50.692;12.844;2022-09-21T16:33:39;15.20;59.10
69382;DHT22;56560;50.692;12.844;2022-09-21T16:38:50;15.10;58.80
69382;DHT22;56560;50.692;12.844;2022-09-21T16:41:18;15.10;58.90
69382;DHT22;56560;50.692;12.844;2022-09-21T16:43:45;15.00;58.00
69382;DHT22;56560;50.692;12.844;2022-09-21T16:46:12;14.80;59.20
69382;DHT22;56560;50.692;12.844;2022-09-21T16:48:38;14.60;57.10
69382;DHT22;56560;50.692;12.844;2022-09-21T16:51:12;14.50;58.30
69382;DHT22;56560;50.692;12.844;2022-09-21T16:53:38;14.30;60.60
69382;DHT22;56560;50.692;12.844;2022-09-21T16:56:04;14.00;61.50
69382;DHT22;56560;50.692;12.844;2022-09-21T16:58:31;13.90;58.50
69382;DHT22;56560;50.692;12.844;2022-09-21T17:00:57;13.70;60.90
69382;DHT22;56560;50.692;12.844;2022-09-21T17:03:22;13.60;62.60
69382;DHT22;56560;50.692;12.844;2022-09-21T17:05:48;13.40;64.00
69382;DHT22;56560;50.692;12.844;2022-09-21T17:08:14;13.20;64.90
69382;DHT22;56560;50.692;12.844;2022-09-21T17:10:42;13.00;64.30
69382;DHT22;56560;50.692;12.844;2022-09-21T17:13:10;12.90;66.10
69382;DHT22;56560;50.692;12.844;2022-09-21T17:15:39;12.60;66.60
69382;DHT22;56560;50.692;12.844;2022-09-21T17:18:06;12.50;68.50
69382;DHT22;56560;50.692;12.844;2022-09-21T17:20:40;12.20;68.60
69382;DHT22;56560;50.692;12.844;2022-09-21T17:23:06;12.00;69.80
69382;DHT22;56560;50.692;12.844;2022-09-21T17:25:33;11.80;70.20
69382;DHT22;56560;50.692;12.844;2022-09-21T17:28:01;11.70;69.90
69382;DHT22;56560;50.692;12.844;2022-09-21T17:30:27;11.50;71.70
69382;DHT22;56560;50.692;12.844;2022-09-21T17:32:53;11.40;73.00
69382;DHT22;56560;50.692;12.844;2022-09-21T17:35:31;11.30;73.70
69382;DHT22;56560;50.692;12.844;2022-09-21T17:37:57;11.30;74.30
69382;DHT22;56560;50.692;12.844;2022-09-21T17:40:23;11.20;74.70
69382;DHT22;56560;50.692;12.844;2022-09-21T17:42:50;11.20;76.10
69382;DHT22;56560;50.692;12.844;2022-09-21T17:45:26;11.20;75.90
69382;DHT22;56560;50.692;12.844;2022-09-21T17:47:55;11.20;77.50
69382;DHT22;56560;50.692;12.844;2022-09-21T17:50:26;11.20;77.20
69382;DHT22;56560;50.692;12.844;2022-09-21T17:52:53;11.20;77.40
69382;DHT22;56560;50.692;12.844;2022-09-21T17:55:51;11.20;77.90
69382;DHT22;56560;50.692;12.844;2022-09-21T18:00:59;11.20;79.00
69382;DHT22;56560;50.692;12.844;2022-09-21T18:03:31;11.10;78.20
69382;DHT22;56560;50.692;12.844;2022-09-21T18:06:00;11.10;77.80
69382;DHT22;56560;50.692;12.844;2022-09-21T18:08:31;11.00;78.70
69382;DHT22;56560;50.692;12.844;2022-09-21T18:11:32;11.00;79.30
69382;DHT22;56560;50.692;12.844;2022-09-21T18:21:46;10.80;79.70
69382;DHT22;56560;50.692;12.844;2022-09-21T18:24:19;10.70;80.20
69382;DHT22;56560;50.692;12.844;2022-09-21T18:26:45;10.60;79.60
69382;DHT22;56560;50.692;12.844;2022-09-21T18:29:32;10.50;79.20
69382;DHT22;56560;50.692;12.844;2022-09-21T18:32:05;10.20;79.90
69382;DHT22;56560;50.692;12.844;2022-09-21T18:40:07;9.80;81.70
69382;DHT22;56560;50.692;12.844;2022-09-21T18:43:01;9.70;81.80
69382;DHT22;56560;50.692;12.844;2022-09-21T18:45:33;9.50;82.40
69382;DHT22;56560;50.692;12.844;2022-09-21T18:53:56;9.10;83.30
69382;DHT22;56560;50.692;12.844;2022-09-21T18:56:23;8.90;84.10
69382;DHT22;56560;50.692;12.844;2022-09-21T18:58:49;8.80;84.30
69382;DHT22;56560;50.692;12.844;2022-09-21T19:01:16;8.70;84.10
69382;DHT22;56560;50.692;12.844;2022-09-21T19:03:44;8.60;84.30
69382;DHT22;56560;50.692;12.844;2022-09-21T19:15:08;8.20;85.50
69382;DHT22;56560;50.692;12.844;2022-09-21T19:17:43;8.10;85.10
69382;DHT22;56560;50.692;12.844;2022-09-21T19:25:33;7.90;86.10
69382;DHT22;56560;50.692;12.844;2022-09-21T19:30:52;7.70;87.50
69382;DHT22;56560;50.692;12.844;2022-09-21T19:33:30;7.60;86.20
69382;DHT22;56560;50.692;12.844;2022-09-21T19:35:56;7.60;86.70
69382;DHT22;56560;50.692;12.844;2022-09-21T19:38:25;7.50;87.30
69382;DHT22;56560;50.692;12.844;2022-09-21T19:40:58;7.50;86.50
69382;DHT22;56560;50.692;12.844;2022-09-21T19:48:46;7.30;88.20
69382;DHT22;56560;50.692;12.844;2022-09-21T19:51:40;7.20;87.20
69382;DHT22;56560;50.692;12.844;2022-09-21T19:54:13;7.20;87.80
69382;DHT22;56560;50.692;12.844;2022-09-21T19:56:58;7.10;86.70
69382;DHT22;56560;50.692;12.844;2022-09-21T19:59:43;7.10;87.10
69382;DHT22;56560;50.692;12.844;2022-09-21T20:02:25;7.00;86.80
69382;DHT22;56560;50.692;12.844;2022-09-21T20:05:02;6.90;87.20
69382;DHT22;56560;50.692;12.844;2022-09-21T20:12:36;6.80;87.30
69382;DHT22;56560;50.692;12.844;2022-09-21T20:15:11;6.70;87.80